createdAt,value
2023-03-07T00:13:03.175Z,9.37
2023-03-07T00:19:27.226Z,9.77
2023-03-07T00:22:16.570Z,9.64
2023-03-07T00:25:44.141Z,9.60
2023-03-07T00:29:05.780Z,9.70
2023-03-07T00:38:58.993Z,9.24
2023-03-07T00:42:06.049Z,9.19
2023-03-07T00:44:33.740Z,9.46
2023-03-07T00:47:02.996Z,9.51
2023-03-07T00:49:36.188Z,9.23
2023-03-07T00:52:23.897Z,9.00
2023-03-07T00:54:56.003Z,9.02
2023-03-07T00:57:27.776Z,9.02
2023-03-07T01:00:00.412Z,9.26
2023-03-07T01:05:48.224Z,9.00
2023-03-07T01:26:52.639Z,9.10
2023-03-07T01:29:23.557Z,8.91
2023-03-07T01:32:17.134Z,9.06
2023-03-07T01:35:04.997Z,9.00
2023-03-07T02:01:49.569Z,9.15
2023-03-07T02:04:42.959Z,8.66
2023-03-07T02:07:11.143Z,8.97
2023-03-07T02:10:15.964Z,8.99
2023-03-07T02:13:06.653Z,8.95
2023-03-07T02:15:35.159Z,8.71
2023-03-07T02:18:03.828Z,8.42
2023-03-07T02:21:13.818Z,8.22
2023-03-07T02:23:58.543Z,8.10
2023-03-07T02:26:31.775Z,8.43
2023-03-07T02:29:11.537Z,8.66
2023-03-07T02:31:58.426Z,8.16
2023-03-07T02:37:35.165Z,8.09
2023-03-07T02:40:09.426Z,7.77
2023-03-07T02:42:45.160Z,7.94
2023-03-07T02:45:27.081Z,7.87
2023-03-07T02:47:54.296Z,7.94
2023-03-07T02:53:21.358Z,8.23
2023-03-07T02:55:54.634Z,8.02
2023-03-07T02:58:36.833Z,7.97
2023-03-07T03:01:07.881Z,8.02
2023-03-07T03:03:50.318Z,7.60
2023-03-07T03:06:27.252Z,7.76
2023-03-07T03:09:15.121Z,7.45
2023-03-07T03:11:53.652Z,7.36
2023-03-07T03:14:42.755Z,7.45
2023-03-07T03:20:23.084Z,7.49
2023-03-07T03:23:57.706Z,7.14
2023-03-07T03:26:24.510Z,7.26
2023-03-07T03:28:55.984Z,7.62
2023-03-07T03:34:48.120Z,7.34
2023-03-07T03:37:15.671Z,7.16
2023-03-07T03:39:42.585Z,7.64
2023-03-07T03:42:18.410Z,7.17
2023-03-07T03:44:49.488Z,7.41
2023-03-07T03:47:19.237Z,7.57
2023-03-07T03:49:47.006Z,7.62
2023-03-07T03:52:15.576Z,7.38
2023-03-07T03:54:43.272Z,7.41
2023-03-07T03:57:14.511Z,7.48
2023-03-07T03:59:41.732Z,7.00
2023-03-07T04:02:11.897Z,7.01
2023-03-07T04:05:06.084Z,7.11
2023-03-07T04:11:10.187Z,7.19
2023-03-07T04:13:41.050Z,7.06
2023-03-07T04:16:23.986Z,7.17
2023-03-07T04:19:15.994Z,7.23
2023-03-07T04:22:42.044Z,6.83
2023-03-07T04:25:25.719Z,6.90
2023-03-07T04:28:13.515Z,7.43
2023-03-07T04:30:40.752Z,7.49
2023-03-07T04:33:09.684Z,7.45
2023-03-07T04:35:36.814Z,7.77
2023-03-07T04:38:05.236Z,7.41
2023-03-07T04:40:38.280Z,7.38
2023-03-07T04:43:06.023Z,7.09
2023-03-07T04:45:36.138Z,7.37
2023-03-07T04:48:04.090Z,7.41
2023-03-07T04:50:31.961Z,7.06
2023-03-07T04:52:59.038Z,7.13
2023-03-07T04:55:26.549Z,7.03
2023-03-07T04:57:54.044Z,6.74
2023-03-07T05:03:50.240Z,9.70
2023-03-07T05:06:17.349Z,7.64
2023-03-07T05:08:44.265Z,7.24
2023-03-07T05:11:12.024Z,7.53
2023-03-07T05:13:38.841Z,7.38
2023-03-07T05:16:06.127Z,7.16
2023-03-07T05:18:35.600Z,7.36
2023-03-07T05:21:04.212Z,7.07
2023-03-07T05:23:31.204Z,6.92
2023-03-07T05:25:59.418Z,6.78
2023-03-07T05:28:29.113Z,6.94
2023-03-07T05:30:56.020Z,7.03
2023-03-07T05:33:22.960Z,7.12
2023-03-07T05:35:52.028Z,7.30
2023-03-07T05:38:19.434Z,7.06
2023-03-07T05:40:46.420Z,7.03
2023-03-07T05:43:13.143Z,7.23
2023-03-07T05:45:39.973Z,7.67
2023-03-07T05:48:07.048Z,7.66
2023-03-07T05:50:33.993Z,7.92
2023-03-07T05:53:00.883Z,7.88
2023-03-07T05:55:28.082Z,7.79
2023-03-07T05:57:55.334Z,8.31
2023-03-07T06:00:26.275Z,8.45
2023-03-07T06:02:53.115Z,8.13
2023-03-07T06:05:21.198Z,9.14
2023-03-07T06:07:53.116Z,10.05
2023-03-07T06:10:21.236Z,10.44
2023-03-07T06:12:54.588Z,10.09
2023-03-07T06:15:24.568Z,10.34
2023-03-07T06:17:52.809Z,11.28
2023-03-07T06:20:21.219Z,10.59
2023-03-07T06:22:48.414Z,10.87
2023-03-07T06:25:21.723Z,12.50
2023-03-07T06:27:49.482Z,12.58
2023-03-07T06:30:16.397Z,12.65
2023-03-07T06:32:43.334Z,12.46
2023-03-07T06:35:10.294Z,12.36
2023-03-07T06:37:37.234Z,12.52
2023-03-07T06:40:09.631Z,12.62
2023-03-07T06:42:36.936Z,12.68
2023-03-07T06:45:04.276Z,12.09
2023-03-07T06:47:31.621Z,12.47
2023-03-07T06:49:58.890Z,13.03
2023-03-07T06:52:25.682Z,12.17
2023-03-07T06:54:52.585Z,12.63
2023-03-07T06:57:20.030Z,12.27
2023-03-07T06:59:46.777Z,12.40
2023-03-07T07:02:15.000Z,12.91
2023-03-07T07:04:42.146Z,12.97
2023-03-07T07:07:09.000Z,13.52
2023-03-07T07:09:35.990Z,13.34
2023-03-07T07:12:03.263Z,13.67
2023-03-07T07:14:29.978Z,13.95
2023-03-07T07:16:56.831Z,13.80
2023-03-07T07:19:24.004Z,13.34
2023-03-07T07:21:50.816Z,12.91
2023-03-07T07:24:17.809Z,14.00
2023-03-07T07:26:44.719Z,13.96
2023-03-07T07:29:11.746Z,13.09
2023-03-07T07:31:38.795Z,14.76
2023-03-07T07:34:05.840Z,14.04
2023-03-07T07:36:34.380Z,13.94
2023-03-07T07:39:06.071Z,14.84
2023-03-07T07:41:34.428Z,14.84
2023-03-07T07:44:01.193Z,14.82
2023-03-07T07:46:30.533Z,14.96
2023-03-07T07:48:57.642Z,14.87
2023-03-07T07:51:24.335Z,15.13
2023-03-07T07:53:51.500Z,14.22
2023-03-07T07:56:18.850Z,13.57
2023-03-07T07:58:48.046Z,14.35
2023-03-07T08:01:19.444Z,14.82
2023-03-07T08:03:46.816Z,13.89
2023-03-07T08:06:19.845Z,14.75
2023-03-07T08:08:48.489Z,13.99
2023-03-07T08:11:16.702Z,13.70
2023-03-07T08:13:43.649Z,13.94
2023-03-07T08:16:19.020Z,14.44
2023-03-07T08:18:51.814Z,13.69
2023-03-07T08:21:19.231Z,13.68
2023-03-07T08:23:46.441Z,14.08
2023-03-07T08:26:13.557Z,15.12
2023-03-07T08:28:41.633Z,15.71
2023-03-07T08:31:14.501Z,15.67
2023-03-07T08:33:42.182Z,15.61
2023-03-07T08:36:09.850Z,15.26
2023-03-07T08:38:36.807Z,15.82
2023-03-07T08:41:06.938Z,16.04
2023-03-07T08:43:36.577Z,15.56
2023-03-07T08:46:04.609Z,16.48
2023-03-07T08:48:31.875Z,15.62
2023-03-07T08:51:05.706Z,15.29
2023-03-07T08:53:32.844Z,15.12
2023-03-07T08:55:59.935Z,15.57
2023-03-07T08:58:26.764Z,15.70
2023-03-07T09:00:53.892Z,16.07
2023-03-07T09:03:20.821Z,16.13
2023-03-07T09:05:47.792Z,15.86
2023-03-07T09:08:14.892Z,15.94
2023-03-07T09:10:41.649Z,16.50
2023-03-07T09:13:08.734Z,15.85
2023-03-07T09:15:38.828Z,15.92
2023-03-07T09:18:05.981Z,16.40
2023-03-07T09:20:33.180Z,16.85
2023-03-07T09:25:41.012Z,16.56
2023-03-07T09:28:07.814Z,17.04
2023-03-07T09:30:34.510Z,16.89
2023-03-07T09:33:01.565Z,16.99
2023-03-07T09:35:28.550Z,16.58
2023-03-07T09:37:55.212Z,16.82
2023-03-07T09:40:26.233Z,17.44
2023-03-07T09:43:01.455Z,16.69
2023-03-07T09:46:05.619Z,15.46
2023-03-07T09:48:56.268Z,15.48
2023-03-07T09:51:30.333Z,15.56
2023-03-07T09:54:10.502Z,15.02
2023-03-07T09:56:54.961Z,15.08
2023-03-07T09:59:50.848Z,15.81
2023-03-07T10:02:21.746Z,15.76
2023-03-07T10:05:00.460Z,15.62
2023-03-07T10:07:28.232Z,15.85
2023-03-07T10:10:00.372Z,15.25
2023-03-07T10:13:01.799Z,15.17
2023-03-07T10:15:42.669Z,14.92
2023-03-07T10:18:21.863Z,14.63
2023-03-07T10:21:03.077Z,14.80
2023-03-07T10:23:54.469Z,14.90
2023-03-07T10:26:34.891Z,14.85
2023-03-07T10:29:24.408Z,15.09
2023-03-07T10:32:11.352Z,16.53
2023-03-07T10:34:39.167Z,16.86
2023-03-07T10:37:21.092Z,16.26
2023-03-07T10:39:53.857Z,16.15
2023-03-07T10:42:27.270Z,16.22
2023-03-07T10:44:55.125Z,15.74
2023-03-07T10:47:25.429Z,16.18
2023-03-07T10:50:02.765Z,16.30
2023-03-07T10:52:39.063Z,16.57
2023-03-07T10:55:31.080Z,16.68
2023-03-07T10:58:22.032Z,16.61
2023-03-07T11:01:03.621Z,17.05
2023-03-07T11:03:49.605Z,16.60
2023-03-07T11:06:35.049Z,16.29
2023-03-07T11:09:26.244Z,16.47
2023-03-07T11:11:59.411Z,16.79
2023-03-07T11:14:28.022Z,16.32
2023-03-07T11:17:02.658Z,16.69
2023-03-07T11:19:40.067Z,16.85
2023-03-07T11:22:37.552Z,16.45
2023-03-07T11:25:16.169Z,16.97
2023-03-07T11:27:46.377Z,16.36
2023-03-07T11:30:30.394Z,15.88
2023-03-07T11:33:07.762Z,15.62
2023-03-07T11:35:50.207Z,15.19
2023-03-07T11:38:35.956Z,15.09
2023-03-07T11:41:11.522Z,15.74
2023-03-07T11:43:50.539Z,16.17
2023-03-07T11:46:32.325Z,16.08
2023-03-07T11:49:24.854Z,16.28
2023-03-07T11:52:15.650Z,15.82
2023-03-07T11:55:10.128Z,16.11
2023-03-07T11:57:42.760Z,15.67
2023-03-07T12:00:33.150Z,15.39
2023-03-07T12:03:20.965Z,15.02
2023-03-07T12:06:16.510Z,15.07
2023-03-07T12:08:43.195Z,15.17
2023-03-07T12:11:25.567Z,15.31
2023-03-07T12:14:07.502Z,14.87
2023-03-07T12:16:47.221Z,15.14
2023-03-07T12:19:29.780Z,14.80
2023-03-07T12:22:22.352Z,14.69
2023-03-07T12:25:07.645Z,14.58
2023-03-07T12:27:54.410Z,14.97
2023-03-07T12:30:37.438Z,15.97
2023-03-07T12:33:06.750Z,16.32
2023-03-07T12:35:44.609Z,16.02
2023-03-07T12:38:17.555Z,15.65
2023-03-07T12:40:52.264Z,15.52
2023-03-07T12:43:27.217Z,15.90
2023-03-07T12:46:16.906Z,15.78
2023-03-07T12:49:26.985Z,15.53
2023-03-07T12:51:59.250Z,15.93
2023-03-07T12:54:40.749Z,15.67
2023-03-07T12:57:28.797Z,15.90
2023-03-07T13:00:01.841Z,16.09
2023-03-07T13:02:32.348Z,16.08
2023-03-07T13:05:02.934Z,16.05
2023-03-07T13:07:32.652Z,16.17
2023-03-07T13:10:07.735Z,16.06
2023-03-07T13:12:37.453Z,15.85
2023-03-07T13:15:05.865Z,15.51
2023-03-07T13:17:35.395Z,15.67
2023-03-07T13:20:15.270Z,15.61
2023-03-07T13:22:42.332Z,15.83
2023-03-07T13:25:21.603Z,16.19
2023-03-07T13:27:52.533Z,15.91
2023-03-07T13:30:23.435Z,15.92
2023-03-07T13:32:56.310Z,15.69
2023-03-07T13:35:31.968Z,15.45
2023-03-07T13:38:02.189Z,15.37
2023-03-07T13:40:51.051Z,15.34
2023-03-07T13:43:26.339Z,16.05
2023-03-07T13:45:57.151Z,16.18
2023-03-07T13:48:27.430Z,15.46
2023-03-07T13:50:57.286Z,15.55
2023-03-07T13:53:40.015Z,15.68
2023-03-07T13:56:16.145Z,15.66
2023-03-07T13:58:59.915Z,15.61
2023-03-07T14:01:37.691Z,15.55
2023-03-07T14:04:38.827Z,15.28
2023-03-07T14:07:24.206Z,15.25
2023-03-07T14:09:56.448Z,15.18
2023-03-07T14:12:36.282Z,15.14
2023-03-07T14:15:23.427Z,15.11
2023-03-07T14:18:15.407Z,15.19
2023-03-07T14:21:01.237Z,15.38
2023-03-07T14:23:59.262Z,14.87
2023-03-07T14:26:33.686Z,14.93
2023-03-07T14:29:04.208Z,14.89
2023-03-07T14:31:38.654Z,14.89
2023-03-07T14:34:24.597Z,14.74
2023-03-07T14:37:05.509Z,14.56
2023-03-07T14:40:10.211Z,14.87
2023-03-07T14:42:55.203Z,14.65
2023-03-07T14:45:31.152Z,14.71
2023-03-07T14:48:30.785Z,14.65
2023-03-07T14:51:05.936Z,14.37
2023-03-07T14:53:35.980Z,14.80
2023-03-07T14:56:08.081Z,14.59
2023-03-07T14:58:44.930Z,14.49
2023-03-07T15:01:16.139Z,14.61
2023-03-07T15:03:52.487Z,14.34
2023-03-07T15:06:22.419Z,14.37
2023-03-07T15:08:51.759Z,14.32
2023-03-07T15:11:30.918Z,14.35
2023-03-07T15:14:18.577Z,14.28
2023-03-07T15:16:55.022Z,14.59
2023-03-07T15:19:30.351Z,14.12
2023-03-07T15:22:00.629Z,14.17
2023-03-07T15:24:27.587Z,14.14
2023-03-07T15:26:55.968Z,14.18
2023-03-07T15:29:26.569Z,14.31
2023-03-07T15:32:09.809Z,14.28
2023-03-07T15:34:40.260Z,14.32
2023-03-07T15:37:33.056Z,14.58
2023-03-07T15:40:09.365Z,14.44
2023-03-07T15:42:49.878Z,14.59
2023-03-07T15:45:39.157Z,14.38
2023-03-07T15:48:37.095Z,14.27
2023-03-07T15:51:10.559Z,14.09
2023-03-07T15:53:40.397Z,14.23
2023-03-07T15:56:22.667Z,14.32
2023-03-07T15:58:52.936Z,14.34
2023-03-07T16:01:28.146Z,14.39
2023-03-07T16:03:57.761Z,14.17
2023-03-07T16:06:46.681Z,14.10
2023-03-07T16:09:16.213Z,13.89
2023-03-07T16:11:44.047Z,14.01
2023-03-07T16:14:24.340Z,13.69
2023-03-07T16:17:09.911Z,13.80
2023-03-07T16:19:36.899Z,13.72
2023-03-07T16:22:04.607Z,13.75
2023-03-07T16:24:31.281Z,13.64
2023-03-07T16:26:58.904Z,13.61
2023-03-07T16:29:26.778Z,13.73
2023-03-07T16:31:56.145Z,13.55
2023-03-07T16:34:23.576Z,13.44
2023-03-07T16:36:50.520Z,13.49
2023-03-07T16:39:18.670Z,13.12
2023-03-07T16:41:56.241Z,13.26
2023-03-07T16:44:24.236Z,13.12
2023-03-07T16:47:16.000Z,13.04
2023-03-07T16:49:43.534Z,13.10
2023-03-07T16:52:25.308Z,13.01
2023-03-07T16:54:55.240Z,12.90
2023-03-07T16:57:25.388Z,13.00
2023-03-07T16:59:54.863Z,12.87
2023-03-07T17:02:22.829Z,12.79
2023-03-07T17:04:57.235Z,13.24
2023-03-07T17:07:24.637Z,12.70
2023-03-07T17:09:51.778Z,12.35
2023-03-07T17:12:22.746Z,12.41
2023-03-07T17:15:04.126Z,12.39
2023-03-07T17:18:03.838Z,12.35
2023-03-07T17:20:30.786Z,12.31
2023-03-07T17:22:57.948Z,12.25
2023-03-07T17:25:30.610Z,11.98
2023-03-07T17:28:07.366Z,11.83
2023-03-07T17:30:34.950Z,11.77
2023-03-07T17:33:01.907Z,11.92
2023-03-07T17:35:31.684Z,11.53
2023-03-07T17:38:02.287Z,11.45
2023-03-07T17:40:31.081Z,11.27
2023-03-07T17:43:13.439Z,11.54
2023-03-07T17:48:29.532Z,11.28
2023-03-07T17:50:56.980Z,11.50
2023-03-07T17:53:23.908Z,11.25
2023-03-07T17:55:51.031Z,11.21
2023-03-07T17:58:18.160Z,11.34
2023-03-07T18:00:44.916Z,11.13
2023-03-07T18:03:12.149Z,11.15
2023-03-07T18:05:40.404Z,11.37
2023-03-07T18:08:07.424Z,11.28
2023-03-07T18:10:34.439Z,11.35
2023-03-07T18:13:01.717Z,11.08
2023-03-07T18:15:28.829Z,11.05
2023-03-07T18:17:57.121Z,10.76
2023-03-07T18:20:29.766Z,10.90
2023-03-07T18:23:03.031Z,10.96
2023-03-07T18:25:30.134Z,10.70
2023-03-07T18:27:57.054Z,10.67
2023-03-07T18:30:24.009Z,10.71
2023-03-07T18:32:53.457Z,10.88
2023-03-07T18:35:20.513Z,10.50
2023-03-07T18:37:47.606Z,10.10
2023-03-07T18:40:14.862Z,10.45
2023-03-07T18:42:42.610Z,10.36
2023-03-07T18:45:10.554Z,10.25
2023-03-07T18:47:37.530Z,10.38
2023-03-07T18:50:04.797Z,10.35
2023-03-07T18:52:34.294Z,10.12
2023-03-07T18:55:08.033Z,9.72
2023-03-07T18:57:39.702Z,10.06
2023-03-07T19:00:07.339Z,9.95
2023-03-07T19:02:34.540Z,9.75
2023-03-07T19:05:02.537Z,9.51
2023-03-07T19:07:31.680Z,9.86
2023-03-07T19:09:58.658Z,9.99
2023-03-07T19:12:26.092Z,10.01
2023-03-07T19:14:53.141Z,10.05
2023-03-07T19:17:23.331Z,10.25
2023-03-07T19:19:53.287Z,9.99
2023-03-07T19:22:25.813Z,9.86
2023-03-07T19:25:04.281Z,9.72
2023-03-07T19:30:34.443Z,9.32
2023-03-07T19:33:17.089Z,9.52
2023-03-07T19:36:02.758Z,9.77
2023-03-07T19:38:29.639Z,9.61
2023-03-07T19:40:57.984Z,9.26
2023-03-07T19:43:26.504Z,9.42
2023-03-07T19:45:55.794Z,9.88
2023-03-07T19:48:23.731Z,9.78
2023-03-07T19:50:57.167Z,9.57
2023-03-07T19:53:28.014Z,9.40
2023-03-07T19:55:57.949Z,9.86
2023-03-07T19:58:27.937Z,9.54
2023-03-07T20:00:56.795Z,9.39
2023-03-07T20:03:25.456Z,9.57
2023-03-07T20:05:54.889Z,9.65
2023-03-07T20:08:22.579Z,9.54
2023-03-07T20:11:04.057Z,9.26
2023-03-07T20:13:36.414Z,9.36
2023-03-07T20:16:03.997Z,9.31
2023-03-07T20:19:13.089Z,9.46
2023-03-07T20:22:23.173Z,9.58
2023-03-07T20:33:47.680Z,9.02
2023-03-07T20:36:25.857Z,8.72
2023-03-07T20:39:01.776Z,8.79
2023-03-07T20:41:32.983Z,8.75
2023-03-07T20:46:53.295Z,8.95
2023-03-07T20:49:21.763Z,8.85
2023-03-07T20:51:49.897Z,8.81
2023-03-07T20:54:18.394Z,8.87
2023-03-07T20:56:47.636Z,9.05
2023-03-07T20:59:19.069Z,8.77
2023-03-07T21:01:50.075Z,8.67
2023-03-07T21:04:20.113Z,8.48
2023-03-07T21:06:52.522Z,8.83
2023-03-07T21:09:23.047Z,8.51
2023-03-07T21:11:50.338Z,8.47
2023-03-07T21:14:22.506Z,8.69
2023-03-07T21:16:49.778Z,8.72
2023-03-07T21:19:16.787Z,8.54
2023-03-07T21:21:48.842Z,8.52
2023-03-07T21:24:36.103Z,8.22
2023-03-07T21:27:10.895Z,8.20
2023-03-07T21:29:47.894Z,8.13
2023-03-07T21:32:23.833Z,8.48
2023-03-07T21:34:51.560Z,8.37
2023-03-07T21:37:54.696Z,8.19
2023-03-07T21:40:41.392Z,8.44
2023-03-07T21:43:08.715Z,8.35
2023-03-07T21:45:35.587Z,8.15
2023-03-07T21:48:02.321Z,8.03
2023-03-07T21:50:29.978Z,8.44
2023-03-07T21:52:56.986Z,8.33
2023-03-07T21:55:26.926Z,8.46
2023-03-07T21:57:54.768Z,8.05
2023-03-07T22:00:22.312Z,7.83
2023-03-07T22:02:49.337Z,8.09
2023-03-07T22:05:16.646Z,8.07
2023-03-07T22:07:43.694Z,8.33
2023-03-07T22:10:11.561Z,8.31
2023-03-07T22:12:38.835Z,8.22
2023-03-07T22:15:06.374Z,7.96
2023-03-07T22:17:34.066Z,8.31
2023-03-07T22:20:02.286Z,8.52
2023-03-07T22:22:29.620Z,8.22
2023-03-07T22:24:59.041Z,8.42
2023-03-07T22:27:29.130Z,7.93
2023-03-07T22:29:56.195Z,7.91
2023-03-07T22:32:26.807Z,8.09
2023-03-07T22:34:56.049Z,7.78
2023-03-07T22:37:46.635Z,7.67
2023-03-07T22:40:33.393Z,8.20
2023-03-07T22:43:36.965Z,7.63
2023-03-07T22:46:08.991Z,7.94
2023-03-07T22:48:38.900Z,7.85
2023-03-07T22:51:48.743Z,7.77
2023-03-07T22:54:19.794Z,7.88
2023-03-07T22:56:56.516Z,8.10
2023-03-07T22:59:26.075Z,7.84
2023-03-07T23:02:03.341Z,7.96
2023-03-07T23:04:30.940Z,7.34
2023-03-07T23:07:10.689Z,7.13
2023-03-07T23:09:37.958Z,7.35
2023-03-07T23:12:13.098Z,7.46
2023-03-07T23:14:46.432Z,7.54
2023-03-07T23:17:13.839Z,7.47
2023-03-07T23:19:43.837Z,7.32
2023-03-07T23:22:11.118Z,7.36
2023-03-07T23:24:38.722Z,7.35
2023-03-07T23:27:05.932Z,7.28
2023-03-07T23:29:33.081Z,7.78
2023-03-07T23:32:04.147Z,7.12
2023-03-07T23:34:42.337Z,7.16
2023-03-07T23:37:48.755Z,7.17
2023-03-07T23:40:19.958Z,7.08
2023-03-07T23:42:58.825Z,6.97
2023-03-07T23:51:16.220Z,6.60
2023-03-07T23:53:43.574Z,6.56
2023-03-07T23:56:12.245Z,6.12
2023-03-07T23:58:39.815Z,6.18
